createdAt,value
2019-05-07T00:03:03.317Z,99.90
2019-05-07T00:06:12.351Z,99.90
2019-05-07T00:09:20.002Z,99.90
2019-05-07T00:12:27.638Z,99.90
2019-05-07T00:15:35.241Z,99.90
2019-05-07T00:18:43.004Z,99.90
2019-05-07T00:21:52.612Z,99.90
2019-05-07T00:24:59.656Z,99.90
2019-05-07T00:28:07.200Z,99.90
2019-05-07T00:31:14.711Z,99.90
2019-05-07T00:34:24.220Z,99.90
2019-05-07T00:37:46.338Z,99.90
2019-05-07T00:41:12.344Z,99.90
2019-05-07T00:44:22.069Z,99.90
2019-05-07T00:47:29.491Z,99.90
2019-05-07T00:50:38.607Z,99.90
2019-05-07T00:53:46.245Z,99.90
2019-05-07T00:56:53.742Z,99.90
2019-05-07T01:00:02.228Z,99.90
2019-05-07T01:03:12.616Z,99.90
2019-05-07T01:06:19.328Z,99.90
2019-05-07T01:09:26.828Z,99.90
2019-05-07T01:12:34.267Z,99.90
2019-05-07T01:15:43.105Z,99.90
2019-05-07T01:18:50.640Z,99.90
2019-05-07T01:21:58.190Z,99.90
2019-05-07T01:25:07.222Z,99.90
2019-05-07T01:28:14.954Z,99.90
2019-05-07T01:31:22.513Z,99.90
2019-05-07T01:34:38.106Z,99.90
2019-05-07T01:37:45.613Z,99.90
2019-05-07T01:40:53.128Z,99.90
2019-05-07T01:44:02.070Z,99.90
2019-05-07T01:47:09.636Z,99.90
2019-05-07T01:50:17.110Z,99.90
2019-05-07T01:53:24.610Z,99.90
2019-05-07T01:56:33.144Z,99.90
2019-05-07T01:59:42.627Z,99.90
2019-05-07T02:02:55.007Z,99.90
2019-05-07T02:06:08.076Z,99.90
2019-05-07T02:09:30.181Z,99.90
2019-05-07T02:12:39.290Z,99.90
2019-05-07T02:16:00.294Z,99.90
2019-05-07T02:18:58.866Z,99.90
2019-05-07T02:22:06.389Z,99.90
2019-05-07T02:25:14.408Z,99.90
2019-05-07T02:28:22.320Z,99.90
2019-05-07T02:31:33.226Z,99.90
2019-05-07T02:34:39.146Z,99.90
2019-05-07T02:37:56.852Z,99.90
2019-05-07T02:41:17.514Z,99.90
2019-05-07T02:44:25.308Z,99.90
2019-05-07T02:47:33.662Z,99.90
2019-05-07T02:50:53.839Z,99.90
2019-05-07T02:54:13.212Z,99.90
2019-05-07T02:57:19.158Z,99.90
2019-05-07T03:00:26.609Z,99.90
2019-05-07T03:03:34.256Z,99.90
2019-05-07T03:06:44.191Z,99.90
2019-05-07T03:09:53.931Z,99.90
2019-05-07T03:13:03.054Z,99.90
2019-05-07T03:16:12.826Z,99.90
2019-05-07T03:19:19.507Z,99.90
2019-05-07T03:22:28.040Z,99.90
2019-05-07T03:25:54.431Z,99.90
2019-05-07T03:29:05.308Z,99.90
2019-05-07T03:32:39.886Z,99.90
2019-05-07T03:35:55.624Z,99.90
2019-05-07T03:38:58.938Z,99.90
2019-05-07T03:42:06.461Z,99.90
2019-05-07T03:45:22.993Z,99.90
2019-05-07T03:48:33.298Z,99.90
2019-05-07T03:51:40.197Z,99.90
2019-05-07T03:54:47.667Z,99.90
2019-05-07T03:57:55.225Z,99.90
2019-05-07T04:01:04.250Z,99.90
2019-05-07T04:04:13.174Z,99.90
2019-05-07T04:07:23.224Z,99.90
2019-05-07T04:10:30.038Z,99.90
2019-05-07T04:13:37.536Z,99.90
2019-05-07T04:16:45.090Z,99.90
2019-05-07T04:19:53.263Z,99.90
2019-05-07T04:23:03.975Z,99.90
2019-05-07T04:26:28.868Z,99.90
2019-05-07T04:29:36.450Z,99.90
2019-05-07T04:32:48.634Z,99.90
2019-05-07T04:36:14.996Z,99.90
2019-05-07T04:39:23.237Z,99.90
2019-05-07T04:42:33.431Z,99.90
2019-05-07T04:45:42.998Z,99.90
2019-05-07T04:48:49.340Z,99.90
2019-05-07T04:52:15.232Z,99.90
2019-05-07T04:55:23.230Z,99.20
2019-05-07T04:58:33.214Z,98.10
2019-05-07T05:01:44.218Z,97.10
2019-05-07T05:04:53.118Z,95.80
2019-05-07T05:08:00.807Z,95.60
2019-05-07T05:11:08.680Z,95.30
2019-05-07T05:14:16.325Z,95.10
2019-05-07T05:17:23.800Z,94.20
2019-05-07T05:20:43.615Z,93.30
2019-05-07T05:24:01.871Z,93.20
2019-05-07T05:27:09.572Z,92.20
2019-05-07T05:30:23.346Z,91.80
2019-05-07T05:33:32.400Z,91.10
2019-05-07T05:36:42.293Z,90.70
2019-05-07T05:40:01.902Z,91.90
2019-05-07T05:43:04.656Z,93.10
2019-05-07T05:46:12.250Z,94.00
2019-05-07T05:49:19.723Z,95.40
2019-05-07T05:52:39.844Z,96.40
2019-05-07T05:55:47.861Z,98.20
2019-05-07T05:59:05.615Z,98.80
2019-05-07T06:02:38.015Z,99.70
2019-05-07T06:05:55.341Z,99.90
2019-05-07T06:09:22.008Z,99.90
2019-05-07T06:12:44.365Z,99.20
2019-05-07T06:15:59.922Z,97.20
2019-05-07T06:19:13.022Z,97.10
2019-05-07T06:22:29.227Z,97.60
2019-05-07T06:25:36.726Z,97.90
2019-05-07T06:28:44.191Z,98.90
2019-05-07T06:32:04.617Z,99.30
2019-05-07T06:35:12.530Z,99.90
2019-05-07T06:38:21.985Z,99.90
2019-05-07T06:41:47.217Z,99.10
2019-05-07T06:45:05.427Z,98.70
2019-05-07T06:48:13.182Z,98.90
2019-05-07T06:51:22.089Z,98.80
2019-05-07T06:54:31.966Z,98.90
2019-05-07T06:57:38.855Z,98.60
2019-05-07T07:01:08.197Z,97.10
2019-05-07T07:04:28.552Z,96.10
2019-05-07T07:07:58.008Z,94.30
2019-05-07T07:11:24.313Z,93.60
2019-05-07T07:14:33.210Z,93.90
2019-05-07T07:17:42.019Z,94.10
2019-05-07T07:20:49.546Z,94.80
2019-05-07T07:23:56.955Z,95.20
2019-05-07T07:27:04.423Z,94.20
2019-05-07T07:30:24.177Z,93.20
2019-05-07T07:33:33.656Z,92.70
2019-05-07T07:37:05.998Z,91.60
2019-05-07T07:40:32.683Z,90.70
2019-05-07T07:43:41.916Z,89.90
2019-05-07T07:46:49.560Z,88.00
2019-05-07T07:49:57.100Z,88.10
2019-05-07T07:53:04.529Z,88.30
2019-05-07T07:56:29.451Z,88.20
2019-05-07T08:00:02.656Z,86.80
2019-05-07T08:03:13.347Z,84.10
2019-05-07T08:06:22.517Z,80.80
2019-05-07T08:09:32.309Z,83.80
2019-05-07T08:12:39.202Z,80.80
2019-05-07T08:15:46.610Z,78.10
2019-05-07T08:18:54.057Z,78.40
2019-05-07T08:22:02.850Z,78.30
2019-05-07T08:25:12.490Z,76.70
2019-05-07T08:28:23.154Z,78.40
2019-05-07T08:31:48.781Z,74.70
2019-05-07T08:35:17.867Z,73.70
2019-05-07T08:38:25.502Z,72.30
2019-05-07T08:41:33.158Z,73.70
2019-05-07T08:44:46.803Z,72.00
2019-05-07T08:47:55.681Z,71.10
2019-05-07T08:51:03.233Z,69.30
2019-05-07T08:54:12.330Z,69.60
2019-05-07T08:57:19.963Z,71.60
2019-05-07T09:00:27.785Z,73.10
2019-05-07T09:03:43.184Z,71.30
2019-05-07T09:06:51.946Z,73.00
2019-05-07T09:09:59.690Z,73.10
2019-05-07T09:13:07.287Z,76.50
2019-05-07T09:16:16.083Z,76.20
2019-05-07T09:19:23.522Z,79.20
2019-05-07T09:22:32.323Z,79.90
2019-05-07T09:25:48.261Z,82.30
2019-05-07T09:29:04.609Z,83.70
2019-05-07T09:32:32.713Z,84.10
2019-05-07T09:35:52.872Z,82.20
2019-05-07T09:39:02.722Z,83.20
2019-05-07T09:42:12.172Z,85.40
2019-05-07T09:45:22.451Z,86.20
2019-05-07T09:48:31.157Z,86.90
2019-05-07T09:51:38.652Z,89.10
2019-05-07T09:54:46.319Z,89.40
2019-05-07T09:57:53.787Z,84.70
2019-05-07T10:01:02.085Z,84.00
2019-05-07T10:04:09.726Z,82.10
2019-05-07T10:07:17.215Z,84.50
2019-05-07T10:10:24.735Z,85.60
2019-05-07T10:13:36.923Z,90.00
2019-05-07T10:17:03.268Z,90.70
2019-05-07T10:20:21.759Z,91.30
2019-05-07T10:23:22.899Z,92.10
2019-05-07T10:26:32.110Z,92.50
2019-05-07T10:29:39.811Z,92.40
2019-05-07T10:32:47.369Z,92.20
2019-05-07T10:35:54.807Z,92.10
2019-05-07T10:39:02.580Z,93.50
2019-05-07T10:42:12.330Z,93.60
2019-05-07T10:45:44.537Z,94.40
2019-05-07T10:49:12.343Z,92.30
2019-05-07T10:52:19.998Z,90.20
2019-05-07T10:55:27.465Z,90.80
2019-05-07T10:58:35.020Z,91.00
2019-05-07T11:02:04.401Z,91.80
2019-05-07T11:05:12.995Z,92.70
2019-05-07T11:08:22.146Z,92.80
2019-05-07T11:11:31.759Z,93.20
2019-05-07T11:14:38.832Z,93.40
2019-05-07T11:18:05.077Z,94.70
2019-05-07T11:21:12.697Z,94.70
2019-05-07T11:24:20.181Z,95.50
2019-05-07T11:27:27.620Z,95.40
2019-05-07T11:30:35.063Z,95.40
2019-05-07T11:33:43.801Z,95.80
2019-05-07T11:36:52.381Z,96.20
2019-05-07T11:40:00.034Z,95.30
2019-05-07T11:43:22.117Z,94.50
2019-05-07T11:46:38.983Z,94.90
2019-05-07T11:50:04.387Z,93.50
2019-05-07T11:53:12.724Z,94.70
2019-05-07T11:56:21.935Z,92.30
2019-05-07T11:59:29.428Z,91.90
2019-05-07T12:02:36.957Z,92.00
2019-05-07T12:05:44.401Z,90.80
2019-05-07T12:08:52.274Z,91.30
2019-05-07T12:11:59.817Z,91.20
2019-05-07T12:15:25.064Z,88.60
2019-05-07T12:18:32.568Z,89.70
2019-05-07T12:21:42.037Z,90.40
2019-05-07T12:24:49.319Z,90.30
2019-05-07T12:27:56.747Z,90.60
2019-05-07T12:31:22.939Z,90.80
2019-05-07T12:34:34.569Z,90.40
2019-05-07T12:37:42.771Z,90.20
2019-05-07T12:40:52.394Z,89.50
2019-05-07T12:44:02.619Z,88.60
2019-05-07T12:47:12.037Z,90.00
2019-05-07T12:50:21.857Z,90.80
2019-05-07T12:53:43.963Z,91.40
2019-05-07T12:56:52.008Z,91.50
2019-05-07T13:00:18.349Z,92.70
2019-05-07T13:03:44.556Z,93.00
2019-05-07T13:06:58.167Z,93.20
2019-05-07T13:10:08.469Z,93.40
2019-05-07T13:13:15.358Z,94.00
2019-05-07T13:16:22.801Z,92.90
2019-05-07T13:19:30.284Z,93.00
2019-05-07T13:22:38.746Z,94.30
2019-05-07T13:25:46.194Z,93.00
2019-05-07T13:28:53.654Z,93.70
2019-05-07T13:32:03.355Z,92.70
2019-05-07T13:35:11.852Z,92.50
2019-05-07T13:38:36.967Z,92.40
2019-05-07T13:42:02.048Z,92.80
2019-05-07T13:45:22.517Z,93.50
2019-05-07T13:48:31.729Z,93.50
2019-05-07T13:51:41.656Z,93.40
2019-05-07T13:54:48.791Z,91.40
2019-05-07T13:57:56.477Z,92.60
2019-05-07T14:01:22.853Z,91.30
2019-05-07T14:04:30.107Z,91.60
2019-05-07T14:07:41.560Z,91.30
2019-05-07T14:10:48.761Z,91.60
2019-05-07T14:13:56.211Z,91.20
2019-05-07T14:17:03.831Z,90.50
2019-05-07T14:20:12.906Z,90.20
2019-05-07T14:23:21.758Z,90.40
2019-05-07T14:26:29.306Z,90.60
2019-05-07T14:29:36.697Z,91.10
2019-05-07T14:32:57.503Z,91.80
2019-05-07T14:36:11.953Z,92.50
2019-05-07T14:39:19.631Z,93.00
2019-05-07T14:42:33.122Z,91.90
2019-05-07T14:45:42.090Z,92.20
2019-05-07T14:48:49.729Z,91.30
2019-05-07T14:51:57.343Z,91.40
2019-05-07T14:55:05.390Z,92.40
2019-05-07T14:58:14.229Z,91.00
2019-05-07T15:01:22.428Z,90.40
2019-05-07T15:04:30.011Z,90.20
2019-05-07T15:07:37.964Z,91.20
2019-05-07T15:10:45.403Z,91.10
2019-05-07T15:13:53.037Z,91.30
2019-05-07T15:17:07.500Z,91.80
2019-05-07T15:20:15.589Z,91.30
2019-05-07T15:23:30.398Z,91.30
2019-05-07T15:26:37.912Z,90.90
2019-05-07T15:29:45.457Z,91.10
2019-05-07T15:32:53.240Z,92.00
2019-05-07T15:36:02.838Z,92.30
2019-05-07T15:39:10.017Z,93.10
2019-05-07T15:42:18.120Z,93.50
2019-05-07T15:45:25.635Z,94.10
2019-05-07T15:48:33.338Z,93.20
2019-05-07T15:51:41.916Z,93.40
2019-05-07T15:54:49.564Z,94.60
2019-05-07T15:57:57.427Z,94.60
2019-05-07T16:01:04.887Z,94.20
2019-05-07T16:04:20.018Z,94.40
2019-05-07T16:07:22.512Z,94.40
2019-05-07T16:10:32.172Z,94.40
2019-05-07T16:13:42.159Z,94.20
2019-05-07T16:16:51.857Z,94.70
2019-05-07T16:19:59.636Z,95.30
2019-05-07T16:23:14.944Z,95.10
2019-05-07T16:26:16.424Z,95.20
2019-05-07T16:29:23.899Z,95.80
2019-05-07T16:32:32.909Z,98.40
2019-05-07T16:35:42.313Z,99.90
2019-05-07T16:38:49.509Z,99.90
2019-05-07T16:41:56.959Z,99.90
2019-05-07T16:45:04.990Z,99.90
2019-05-07T16:48:12.585Z,99.90
2019-05-07T16:51:22.326Z,99.90
2019-05-07T16:54:29.964Z,99.90
2019-05-07T16:57:56.293Z,99.90
2019-05-07T17:01:06.939Z,99.90
2019-05-07T17:04:14.418Z,99.90
2019-05-07T17:07:22.423Z,99.90
2019-05-07T17:10:31.814Z,99.90
2019-05-07T17:13:39.548Z,99.90
2019-05-07T17:16:47.095Z,99.90
2019-05-07T17:19:54.702Z,99.90
2019-05-07T17:23:03.027Z,99.90
2019-05-07T17:26:11.730Z,99.90
2019-05-07T17:29:19.292Z,99.90
2019-05-07T17:32:26.760Z,99.90
2019-05-07T17:35:34.599Z,99.90
2019-05-07T17:38:42.864Z,99.90
2019-05-07T17:41:51.850Z,99.90
2019-05-07T17:44:59.493Z,99.90
2019-05-07T17:48:07.182Z,99.90
2019-05-07T17:51:33.437Z,99.90
2019-05-07T17:54:42.391Z,99.90
2019-05-07T17:57:51.894Z,99.90
2019-05-07T18:01:01.784Z,99.90
2019-05-07T18:04:09.677Z,99.90
2019-05-07T18:07:17.491Z,99.90
2019-05-07T18:10:25.097Z,99.90
2019-05-07T18:13:33.808Z,99.90
2019-05-07T18:17:05.511Z,99.90
2019-05-07T18:20:13.060Z,99.90
2019-05-07T18:23:22.243Z,99.90
2019-05-07T18:26:33.709Z,99.90
2019-05-07T18:29:42.725Z,99.90
2019-05-07T18:32:55.272Z,99.90
2019-05-07T18:36:02.927Z,99.90
2019-05-07T18:39:12.393Z,99.90
2019-05-07T18:42:22.015Z,99.90
2019-05-07T18:45:28.874Z,99.90
2019-05-07T18:48:36.468Z,99.90
2019-05-07T18:51:44.121Z,99.90
2019-05-07T18:54:52.053Z,99.90
2019-05-07T18:57:59.995Z,99.90
2019-05-07T19:01:10.868Z,99.90
2019-05-07T19:04:18.364Z,99.90
2019-05-07T19:07:25.885Z,99.90
2019-05-07T19:10:33.375Z,99.90
2019-05-07T19:13:41.968Z,99.90
2019-05-07T19:16:49.820Z,99.90
2019-05-07T19:19:57.416Z,99.90
2019-05-07T19:23:04.860Z,99.90
2019-05-07T19:26:13.173Z,99.90
2019-05-07T19:29:23.363Z,99.90
2019-05-07T19:32:32.237Z,99.90
2019-05-07T19:35:41.765Z,99.90
2019-05-07T19:38:49.235Z,99.90
2019-05-07T19:41:56.695Z,99.90
2019-05-07T19:45:04.205Z,99.90
2019-05-07T19:48:12.495Z,99.90
2019-05-07T19:51:20.088Z,99.90
2019-05-07T19:54:27.579Z,99.90
2019-05-07T19:57:42.532Z,99.90
2019-05-07T20:00:49.383Z,99.90
2019-05-07T20:03:56.890Z,99.90
2019-05-07T20:07:04.542Z,99.90
2019-05-07T20:10:14.226Z,99.90
2019-05-07T20:13:21.752Z,99.90
2019-05-07T20:16:29.267Z,99.90
2019-05-07T20:19:38.027Z,99.90
2019-05-07T20:22:45.535Z,99.90
2019-05-07T20:25:53.051Z,99.90
2019-05-07T20:29:02.874Z,99.90
2019-05-07T20:32:10.215Z,99.90
2019-05-07T20:35:17.848Z,99.90
2019-05-07T20:38:25.387Z,99.90
2019-05-07T20:41:33.206Z,99.90
2019-05-07T20:44:42.614Z,99.90
2019-05-07T20:47:50.201Z,99.90
2019-05-07T20:50:57.727Z,99.90
2019-05-07T20:54:14.271Z,99.90
2019-05-07T20:57:25.424Z,99.90
2019-05-07T21:00:32.909Z,99.90
2019-05-07T21:03:42.684Z,99.90
2019-05-07T21:06:49.722Z,99.90
2019-05-07T21:09:57.269Z,99.90
2019-05-07T21:13:04.874Z,99.90
2019-05-07T21:16:12.750Z,99.90
2019-05-07T21:19:22.354Z,99.90
2019-05-07T21:22:31.848Z,99.90
2019-05-07T21:25:45.521Z,99.90
2019-05-07T21:28:48.334Z,99.90
2019-05-07T21:31:55.806Z,99.90
2019-05-07T21:35:03.236Z,99.90
2019-05-07T21:38:12.671Z,99.90
2019-05-07T21:41:22.367Z,99.90
2019-05-07T21:44:28.964Z,99.90
2019-05-07T21:47:36.521Z,99.90
2019-05-07T21:50:44.004Z,99.90
2019-05-07T21:53:58.702Z,99.90
2019-05-07T21:57:32.933Z,99.90
2019-05-07T22:01:08.044Z,99.90
2019-05-07T22:04:17.452Z,99.90
2019-05-07T22:07:25.112Z,99.90
2019-05-07T22:10:34.070Z,99.90
2019-05-07T22:13:43.481Z,99.90
2019-05-07T22:16:54.490Z,99.90
2019-05-07T22:20:03.015Z,99.90
2019-05-07T22:23:10.754Z,99.90
2019-05-07T22:26:23.180Z,99.90
2019-05-07T22:29:28.642Z,99.90
2019-05-07T22:33:02.490Z,99.90
2019-05-07T22:36:12.540Z,99.90
2019-05-07T22:39:22.073Z,99.90
2019-05-07T22:42:32.713Z,99.90
2019-05-07T22:45:40.306Z,99.90
2019-05-07T22:48:48.624Z,99.90
2019-05-07T22:51:56.150Z,99.90
2019-05-07T22:55:03.680Z,99.90
2019-05-07T22:58:26.546Z,99.90
2019-05-07T23:01:34.066Z,99.90
2019-05-07T23:04:43.213Z,99.90
2019-05-07T23:07:52.641Z,99.90
2019-05-07T23:10:59.832Z,99.90
2019-05-07T23:14:07.318Z,99.90
2019-05-07T23:17:16.034Z,99.90
2019-05-07T23:20:24.461Z,99.90
2019-05-07T23:23:32.608Z,99.90
2019-05-07T23:26:48.169Z,99.90
2019-05-07T23:29:49.177Z,99.90
2019-05-07T23:32:56.641Z,99.90
2019-05-07T23:36:04.287Z,99.90
2019-05-07T23:39:13.307Z,99.90
2019-05-07T23:42:24.611Z,99.90
2019-05-07T23:45:32.106Z,99.90
2019-05-07T23:48:40.031Z,99.90
2019-05-07T23:51:47.548Z,99.90
2019-05-07T23:54:55.127Z,99.90
2019-05-07T23:58:03.083Z,99.90
